< Cyclone 200506 2005 Season Cyclone 200508 >
Cyclone 200507 (INGRID)
General InformationDetailed Track InformationTrack Information on Google MapsList of All Images || ResourceGoogle EarthGE AnimationAtom FeedGeoJSON
Detalied Best Track Wind (Time Zone = UTC)
Year Month Day Hour Lat. Long. Wind (kt) Gust (kt) Direc. of Major Storm Axis Radius of Major Storm Axis (nm) Radius of Minor Storm Axis (nm) Direc. of Major Gale Axis Radius of Major Gale Axis (nm) Radius of Minor Gale Axis (nm) Image
2005 3 4 00 -11.4 140.0 20 -1 symmetric - - symmetric - - Image
2005 3 4 06 -11.4 141.0 20 -1 symmetric - - symmetric - - Image
2005 3 4 12 -11.4 142.0 25 -1 symmetric - - symmetric - - Image
2005 3 4 18 -11.4 143.3 25 -1 symmetric - - symmetric - - Image
2005 3 5 00 -11.6 144.3 30 -1 symmetric - - symmetric - - Image
2005 3 5 06 -11.9 145.2 30 -1 symmetric - - symmetric - - Image
2005 3 5 12 -12.2 146.4 35 -1 symmetric - - symmetric - - Image
2005 3 5 18 -12.3 148.0 35 -1 symmetric - - symmetric - - Image
2005 3 6 00 -12.6 148.2 40 -1 symmetric - - symmetric - - Image
2005 3 6 03 -12.9 148.2 45 -1 symmetric - - symmetric - - Image
2005 3 6 06 -13.3 148.4 50 -1 symmetric - - symmetric - - Image
2005 3 6 12 -13.5 148.7 70 -1 symmetric - - symmetric - - Image
2005 3 6 18 -13.7 149.0 80 -1 symmetric - - symmetric - - Image
2005 3 7 00 -14.0 148.7 85 -1 symmetric - - symmetric - - Image
2005 3 7 06 -14.2 148.6 100 -1 symmetric - - symmetric - - Image
2005 3 7 12 -14.2 148.4 100 -1 symmetric - - symmetric - - Image
2005 3 7 18 -13.9 147.9 110 -1 symmetric - - symmetric - - Image
2005 3 8 00 -13.7 147.4 115 -1 symmetric - - symmetric - - Image
2005 3 8 06 -13.9 146.9 120 -1 symmetric - - symmetric - - Image
2005 3 8 12 -13.8 146.5 115 -1 symmetric - - symmetric - - Image
2005 3 8 18 -13.5 146.1 110 -1 symmetric - - symmetric - - Image
2005 3 9 00 -13.5 145.6 110 -1 symmetric - - symmetric - - Image
2005 3 9 06 -13.3 145.1 100 -1 symmetric - - symmetric - - Image
2005 3 9 12 -13.2 144.5 90 -1 symmetric - - symmetric - - Image
2005 3 9 15 -13.2 144.0 90 -1 symmetric - - symmetric - - Image
2005 3 9 16 -13.2 144.0 90 -1 symmetric - - symmetric - - Image
2005 3 9 18 -13.1 143.8 95 -1 symmetric - - symmetric - - Image
2005 3 9 19 -13.1 143.7 95 -1 symmetric - - symmetric - - Image
2005 3 9 20 -13.2 143.5 95 -1 symmetric - - symmetric - - Image
2005 3 9 21 -13.2 143.4 85 -1 symmetric - - symmetric - - Image
2005 3 10 00 -13.1 142.8 60 -1 symmetric - - symmetric - - Image
2005 3 10 06 -13.1 142.3 50 -1 symmetric - - symmetric - - Image
2005 3 10 12 -12.9 141.5 40 -1 symmetric - - symmetric - - Image
2005 3 10 18 -12.6 140.1 60 -1 symmetric - - symmetric - - Image
2005 3 11 00 -12.4 139.4 70 100 symmetric - - symmetric - - Image
2005 3 11 03 -12.4 139.0 80 115 symmetric - - symmetric - - Image
2005 3 11 06 -12.2 138.7 85 120 symmetric - - symmetric - - Image
2005 3 11 09 -12.1 138.2 90 125 symmetric - - symmetric - - Image
2005 3 11 12 -12.0 137.8 100 140 symmetric - - symmetric - - Image
2005 3 11 15 -11.9 137.3 115 160 symmetric - - symmetric - - Image
2005 3 11 18 -11.8 136.8 125 175 symmetric - - symmetric - - Image
2005 3 11 21 -11.7 136.3 125 175 symmetric - - symmetric - - Image
2005 3 12 00 -11.5 135.9 125 175 symmetric - - symmetric - - Image
2005 3 12 03 -11.5 135.3 125 175 symmetric - - symmetric - - Image
2005 3 12 06 -11.4 134.9 125 175 symmetric - - symmetric - - Image
2005 3 12 09 -11.4 134.4 125 175 symmetric - - symmetric - - Image
2005 3 12 12 -11.3 133.9 125 175 symmetric - - symmetric - - Image
2005 3 12 15 -11.2 133.3 115 160 symmetric - - symmetric - - Image
2005 3 12 18 -11.1 132.9 100 140 symmetric - - symmetric - - Image
2005 3 12 21 -11.1 132.5 90 125 symmetric - - symmetric - - Image
2005 3 13 00 -11.1 132.1 90 125 symmetric - - symmetric - - Image
2005 3 13 03 -11.2 131.7 80 115 symmetric - - symmetric - - Image
2005 3 13 06 -11.2 131.3 80 115 symmetric - - symmetric - - Image
2005 3 13 09 -11.3 131.1 70 105 symmetric - - symmetric - - Image
2005 3 13 12 -11.3 130.8 70 105 symmetric - - symmetric - - Image
2005 3 13 15 -11.3 130.5 70 105 symmetric - - symmetric - - Image
2005 3 13 18 -11.4 130.3 60 85 symmetric - - symmetric - - Image
2005 3 13 21 -11.5 130.0 60 85 symmetric - - symmetric - - Image
2005 3 14 00 -11.4 129.7 70 100 symmetric - - symmetric - - Image
2005 3 14 03 -11.5 129.6 70 100 symmetric - - symmetric - - Image
2005 3 14 06 -11.7 129.4 70 100 symmetric - - symmetric - - Image
2005 3 14 09 -11.9 129.1 80 115 symmetric - - symmetric - - Image
2005 3 14 12 -11.9 128.7 90 125 symmetric - - symmetric - - Image
2005 3 14 15 -12.0 128.4 90 125 symmetric - - symmetric - - Image
2005 3 14 18 -12.0 128.3 90 125 symmetric - - symmetric - - Image
2005 3 14 21 -12.4 128.3 100 140 symmetric - - symmetric - - Image
2005 3 15 00 -12.7 127.9 100 140 symmetric - - symmetric - - Image
2005 3 15 03 -12.8 127.7 100 140 symmetric - - symmetric - - Image
2005 3 15 06 -13.1 127.5 100 140 symmetric - - symmetric - - Image
2005 3 15 09 -13.4 127.4 100 140 symmetric - - symmetric - - Image
2005 3 15 12 -13.7 127.1 100 140 symmetric - - symmetric - - Image
2005 3 15 15 -13.9 126.8 80 115 symmetric - - symmetric - - Image
2005 3 15 18 -14.0 126.6 70 100 symmetric - - symmetric - - Image
2005 3 15 21 -14.0 126.5 60 120 symmetric - - symmetric - - Image
2005 3 16 00 -14.2 126.4 55 80 symmetric - - symmetric - - Image
2005 3 16 03 -14.3 126.5 50 70 symmetric - - symmetric - - Image
2005 3 16 06 -14.4 126.8 45 65 symmetric - - symmetric - - Image
2005 3 16 09 -14.7 127.1 40 55 symmetric - - symmetric - - Image
2005 3 16 12 -14.9 127.4 40 55 symmetric - - symmetric - - Image
2005 3 16 15 -15.0 127.8 35 50 symmetric - - symmetric - - Image
2005 3 16 18 -15.1 128.1 35 50 symmetric - - symmetric - - Image
2005 3 16 21 -15.2 128.4 30 45 symmetric - - symmetric - - Image
< Cyclone 200506 2005 Season Cyclone 200508 >

Help